Oaktown, Indiana
Current Conditions -  °F | °C
As of 9:53 AM on Saturday 20 Dec 2014 (Local Time) from KLWV Reporting Station
Haze Haze  
Wind Chill: 32°   Ceiling: 6500
Heat Index: 32°   Visibility: 6mi
Dew Point: 27°   Wind: 0mph
Humidity: 82%   Direction: NA
Pressure: 30.34"   Gusts: NA
Location:  38.87°N, 87.44°W
Report Text: KLWV 201553Z AUTO 00000KT 6SM HZ SCT012 OVC065 00/M03 A3034 RMK AO2 SLP278 T00001028
Loading
Personal Weather Stations






























Interactive Weather Map New forecast layout! Learn more

10-Day Weather Forecast

Advertisements
Track Severe Weather on mobile